Flight Track Log - Related Links

Times and Time Zones

All times are in EDT time to prevent confusion due to time zone crossing. See the ASQ4233 flight status page for this flight to view local times or setup timezone preferences in your user account.

Time Position Orientation Groundspeed Altitude Reporting Facility
EDT Latitude Longitude Course Direction KTS MPH feet Rate Location/Type
Thu 01:55:32 PM 32.8667 -96.8500 161° South 133 153 1,400  Level Dallas / Fort Worth TRACON
Thu 01:56:26 PM 32.8833 -96.9000 292° West 197 227 3,100 1,895 Climbing Dallas / Fort Worth TRACON
Thu 01:57:26 PM 32.9333 -96.8667 29° Northeast 269 310 5,000 2,250 Climbing Dallas / Fort Worth TRACON
Thu 01:58:26 PM 32.8833 -96.8000 132° Southeast 281 323 7,600 2,380 Climbing Dallas / Fort Worth TRACON
Thu 01:59:00 PM 32.6939 -96.9727 162° South  Level FlightAware Approximate
Thu 01:59:27 PM 32.8000 -96.7833 170° South 302 348 9,800  Level Dallas / Fort Worth TRACON
Thu 02:00:00 PM 32.6133 -96.9420 161° South  Level FlightAware Approximate
Thu 02:01:39 PM 32.6044 -96.8019 185° South 338 389 12,700  Level Fort Worth Center
Thu 02:02:39 PM 32.4936 -96.8075 182° South 374 430 14,100 1,400 Climbing Fort Worth Center
Thu 02:03:39 PM 32.3997 -96.8131 183° South 379 436 15,500 1,550 Climbing Fort Worth Center
Thu 02:04:39 PM 32.2869 -96.8139 180° South 378 435 17,200 1,350 Climbing Fort Worth Center
Thu 02:05:39 PM 32.1950 -96.7800 163° South 378 435 18,200 1,300 Climbing Fort Worth Center
Thu 02:06:39 PM 32.0822 -96.7392 163° South 383 441 19,800 1,400 Climbing Fort Worth Center
Thu 02:07:39 PM 31.9794 -96.6983 161° South 383 441 21,000 600 Climbing Fort Worth Center
Thu 02:08:39 PM 31.8708 -96.6575 162° South 396 456 21,000  Level Fort Worth Center
Thu 02:09:39 PM 31.7556 -96.6119 161° South 427 491 21,000  Level Fort Worth Center
Thu 02:11:14 PM 31.5875 -96.5411 160° South 437 503 21,000  Level Houston Center
Thu 02:12:17 PM 31.4739 -96.4917 160° South 429 494 21,000  Level Houston Center
Thu 02:13:19 PM 31.3650 -96.4222 151° Southeast 440 506 21,000  Level Houston Center
Thu 02:14:21 PM 31.2539 -96.3544 152° Southeast 444 511 21,000  Level Houston Center
Thu 02:15:23 PM 31.1244 -96.2742 152° Southeast 444 511 21,000  Level Houston Center
Thu 02:16:25 PM 31.0133 -96.2056 152° Southeast 445 512 21,000 -968 Level Houston Center
Thu 02:17:27 PM 30.9036 -96.1383 152° Southeast 441 507 19,000 -2,081 Descending Houston Center
Thu 02:18:29 PM 30.7975 -96.0722 152° Southeast 430 495 16,700 -2,160 Descending Houston Center
Thu 02:19:32 PM 30.6964 -96.0111 153° Southeast 417 480 14,500 -2,278 Descending Houston Center
Thu 02:19:48 PM 30.6569 -95.9872 152° Southeast 414 476 13,700 -1,839 Descending Houston Center
Thu 02:20:34 PM 30.5992 -95.9514 152° Southeast 413 475 12,600 -1,055 Descending Houston Center
Thu 02:21:19 PM 30.5064 -95.8956 153° Southeast 387 445 12,100 -581 Descending Houston Center
Thu 02:21:36 PM 30.4853 -95.8808 149° Southeast 387 445 12,000 -387 Descending Houston Center
Thu 02:22:21 PM 30.4208 -95.8281 145° Southeast 380 437 11,700 -774 Descending Houston Center
Thu 02:22:38 PM 30.4008 -95.8078 139° Southeast 386 444 11,200 -1,475 Descending Houston Center
Thu 02:23:22 PM 30.3378 -95.7433 139° Southeast 378 435 10,200 -1,161 Descending Houston Center
Thu 02:23:40 PM 30.3233 -95.7278 137° Southeast 377 434 10,000 -689 Descending Houston Center
Thu 02:24:23 PM 30.2683 -95.6692 137° Southeast 304 350 9,500 -774 Descending Houston Center
Thu 02:24:42 PM 30.2586 -95.6592 138° Southeast 321 369 9,200 -1,082 Descending Houston Center
Thu 02:25:24 PM 30.2081 -95.6061 138° Southeast 298 343 8,400 -1,065 Descending Houston Center
Thu 02:25:44 PM 30.1981 -95.5956 138° Southeast 297 342 8,100 -1,475 Descending Houston Center
Thu 02:26:25 PM 30.1456 -95.5411 138° Southeast 300 345 6,900 -1,524 Descending Houston Center
Thu 02:26:47 PM 30.1242 -95.5200 140° Southeast 296 341 6,500 -982 Descending Houston Center
Thu 02:27:20 PM 30.1064 -95.4783 116° Southeast 248 285 6,000 -484 Descending Houston Center
Thu 02:27:49 PM 30.1061 -95.4450 91° East 253 291 6,000  Level Houston Center
Thu 02:28:28 PM 30.1050 -95.3961 91° East 219 252 6,000  Level Houston Center
Thu 02:28:51 PM 30.1075 -95.3739 83° East 227 261 6,000  Level Houston Center
Thu 02:29:29 PM 30.1047 -95.3239 94° East 239 275 6,000  Level Houston Center
Thu 02:29:53 PM 30.1067 -95.2989 85° East 230 265 6,000  Level Houston Center
Thu 02:30:30 PM 30.1056 -95.2417 91° East 238 274 6,000 -97 Level Houston Center
Thu 02:30:55 PM 30.1067 -95.2231 86° East 234 269 5,900 -1,309 Descending Houston Center
Thu 02:31:25 PM 30.1061 -95.1789 91° East 220 253 4,800 -1,645 Descending Houston Center
Thu 02:31:57 PM 30.1064 -95.1506 89° East 229 264 4,200 -1,970 Descending Houston Center
Thu 02:32:32 PM 30.0731 -95.1153 138° Southeast 254 292 2,600 -2,000 Descending Houston Center
Thu 02:33:00 PM 30.0461 -95.1256 198° South 242 278 2,100 -1,071 Descending Houston Center

Login

Don't have an account? Register now (free) for customized features, flight alerts, and more!